Time;durP1;ratioP1;P1;durP2;ratioP2;P2;SDS_P1;SDS_P2;PMS_P1;PMS_P2;Temp;Humidity;BMP_temperature;BMP_pressure;BME280_temperature;BME280_humidity;BME280_pressure;Samples;Min_cycle;Max_cycle;Signal;HPM_P1;HPM_P2
2023/09/26 00:01:31;;;;;;;8.10;7.35;;;;;;;13.51;100.00;101977.78;5023179;28;20052;-69
2023/09/26 00:03:56;;;;;;;8.48;7.70;;;;;;;13.50;100.00;101984.06;5022605;28;20029;-69
2023/09/26 00:06:23;;;;;;;9.43;7.65;;;;;;;13.49;100.00;101979.66;5023344;28;20095;-69
2023/09/26 00:08:54;;;;;;;9.20;7.35;;;;;;;13.43;100.00;101979.00;5022531;28;20033;-69
2023/09/26 00:11:21;;;;;;;9.45;8.55;;;;;;;13.40;100.00;101975.59;5022646;28;20025;-69
2023/09/26 00:13:48;;;;;;;10.48;8.77;;;;;;;13.30;100.00;101975.13;5022688;28;20041;-69
2023/09/26 00:16:14;;;;;;;10.95;8.63;;;;;;;13.21;100.00;101968.34;5005476;28;20049;-69
2023/09/26 00:18:40;;;;;;;9.80;8.70;;;;;;;13.24;100.00;101970.03;5022349;28;20104;-69
2023/09/26 00:21:11;;;;;;;10.48;9.48;;;;;;;13.10;100.00;101965.28;5022091;28;20025;-68
2023/09/26 00:23:37;;;;;;;11.60;9.88;;;;;;;13.15;100.00;101973.09;5022883;28;20037;-68
2023/09/26 00:26:07;;;;;;;11.40;10.23;;;;;;;13.12;100.00;101974.06;5022620;28;20035;-68
2023/09/26 00:28:33;;;;;;;10.88;9.77;;;;;;;13.05;100.00;101974.44;5022425;28;20480;-69
2023/09/26 00:31:03;;;;;;;11.55;10.45;;;;;;;13.01;100.00;101971.03;5022887;28;20066;-68
2023/09/26 00:33:29;;;;;;;11.57;10.48;;;;;;;12.92;100.00;101972.28;5022107;28;20034;-69
2023/09/26 00:35:55;;;;;;;10.60;9.20;;;;;;;12.96;100.00;101973.91;5022966;28;20048;-68
2023/09/26 00:38:20;;;;;;;11.50;10.32;;;;;;;12.95;100.00;101969.47;5021974;28;20026;-68
2023/09/26 00:40:45;;;;;;;11.52;10.07;;;;;;;12.91;100.00;101978.53;5024198;28;20495;-69
2023/09/26 00:43:21;;;;;;;11.38;9.95;;;;;;;12.93;100.00;101973.16;5026846;28;20033;-69
2023/09/26 00:45:51;;;;;;;11.13;10.00;;;;;;;12.86;100.00;101975.19;5027032;28;20306;-69
2023/09/26 00:48:17;;;;;;;11.63;10.43;;;;;;;12.86;100.00;101972.53;5004949;28;20029;-69
2023/09/26 00:50:44;;;;;;;12.18;10.35;;;;;;;12.82;100.00;101970.94;5023358;28;20040;-69
2023/09/26 00:53:09;;;;;;;11.88;10.75;;;;;;;12.80;100.00;101977.28;5026334;28;20482;-68
2023/09/26 00:55:35;;;;;;;11.73;10.70;;;;;;;12.74;100.00;101967.69;5026372;28;20185;-68
2023/09/26 00:58:02;;;;;;;11.68;10.48;;;;;;;12.68;100.00;101971.50;5026684;28;20021;-69
2023/09/26 01:00:27;;;;;;;11.52;10.32;;;;;;;12.73;100.00;101971.31;5026360;28;20095;-69
2023/09/26 01:02:54;;;;;;;11.18;10.15;;;;;;;12.76;100.00;101973.88;5025583;28;20075;-69
2023/09/26 01:05:20;;;;;;;12.07;10.95;;;;;;;12.74;100.00;101961.50;5025839;28;20108;-69
2023/09/26 01:07:49;;;;;;;11.45;10.40;;;;;;;12.66;100.00;101959.13;5026544;28;20606;-68
2023/09/26 01:10:15;;;;;;;11.07;10.07;;;;;;;12.69;100.00;101953.69;5026417;28;20549;-68
2023/09/26 01:12:40;;;;;;;11.52;10.43;;;;;;;12.63;100.00;101959.28;5025869;28;20108;-69
2023/09/26 01:15:09;;;;;;;13.13;11.70;;;;;;;12.59;100.00;101963.88;5025931;28;20476;-69
2023/09/26 01:17:35;;;;;;;12.27;10.98;;;;;;;12.58;100.00;101963.94;5025427;28;20021;-69
2023/09/26 01:20:00;;;;;;;12.18;10.95;;;;;;;12.58;100.00;101958.59;5026195;28;20028;-68
2023/09/26 01:22:28;;;;;;;12.23;11.13;;;;;;;12.53;100.00;101960.59;5026199;28;20029;-69
2023/09/26 01:24:56;;;;;;;12.23;10.88;;;;;;;12.53;100.00;101955.25;5025739;28;20042;-68
2023/09/26 01:27:21;;;;;;;14.50;12.00;;;;;;;12.44;100.00;101946.69;5025899;28;20527;-69
2023/09/26 01:29:47;;;;;;;13.40;12.25;;;;;;;12.48;100.00;101960.78;5025779;28;20025;-69
2023/09/26 01:32:13;;;;;;;13.85;12.48;;;;;;;12.47;100.00;101953.72;5025766;28;20494;-69
2023/09/26 01:34:38;;;;;;;13.70;12.30;;;;;;;12.45;100.00;101961.75;5025737;28;20413;-68
2023/09/26 01:37:04;;;;;;;13.73;12.43;;;;;;;12.49;100.00;101957.16;5025144;28;20028;-69
2023/09/26 01:39:30;;;;;;;14.45;13.10;;;;;;;12.49;100.00;101964.31;5025728;28;20110;-69
2023/09/26 01:41:56;;;;;;;15.38;13.48;;;;;;;12.52;100.00;101964.19;5025448;28;20020;-69
2023/09/26 01:44:21;;;;;;;15.05;13.60;;;;;;;12.49;100.00;101961.66;5025272;28;20051;-69
2023/09/26 01:46:47;;;;;;;14.73;13.32;;;;;;;12.49;100.00;101967.00;5024545;28;20022;-69
2023/09/26 01:49:12;;;;;;;15.45;13.38;;;;;;;12.52;100.00;101964.19;5025548;28;20466;-68
2023/09/26 01:51:38;;;;;;;14.77;13.38;;;;;;;12.45;100.00;101963.56;5024186;28;20103;-69
2023/09/26 01:54:03;;;;;;;14.48;13.18;;;;;;;12.48;100.00;101959.91;5024622;28;20577;-68
2023/09/26 01:56:31;;;;;;;13.80;12.43;;;;;;;12.48;100.00;101958.09;5025608;28;20025;-69
2023/09/26 01:58:56;;;;;;;13.95;12.65;;;;;;;12.46;100.00;101952.84;5025562;28;20028;-69
2023/09/26 02:01:22;;;;;;;14.88;13.23;;;;;;;12.38;100.00;101952.28;5025962;28;20105;-69
2023/09/26 02:03:47;;;;;;;14.55;13.15;;;;;;;12.40;100.00;101946.88;5025571;28;20052;-69
2023/09/26 02:06:12;;;;;;;14.90;13.13;;;;;;;12.34;100.00;101952.47;5026600;28;20022;-68
2023/09/26 02:08:37;;;;;;;14.30;13.05;;;;;;;12.29;100.00;101944.66;5025547;28;20057;-68
2023/09/26 02:11:03;;;;;;;14.07;12.77;;;;;;;12.31;100.00;101941.91;5027255;28;20085;-68
2023/09/26 02:13:28;;;;;;;14.57;13.13;;;;;;;12.28;100.00;101934.88;5027393;28;20107;-68
2023/09/26 02:15:54;;;;;;;15.00;13.18;;;;;;;12.25;100.00;101942.16;5025557;28;20075;-69
2023/09/26 02:18:19;;;;;;;13.77;12.50;;;;;;;12.20;100.00;101935.19;5025491;28;20025;-69
2023/09/26 02:20:45;;;;;;;14.68;13.27;;;;;;;12.21;100.00;101941.44;5026102;28;20478;-70
2023/09/26 02:23:10;;;;;;;14.65;13.35;;;;;;;12.12;100.00;101936.44;5025378;28;20029;-68
2023/09/26 02:25:36;;;;;;;14.90;13.35;;;;;;;12.14;100.00;101939.94;5012086;28;20398;-69
2023/09/26 02:28:01;;;;;;;14.60;13.30;;;;;;;12.14;100.00;101939.94;5026789;28;20754;-69
2023/09/26 02:30:28;;;;;;;14.25;13.00;;;;;;;12.10;100.00;101935.63;5024758;28;20251;-69
2023/09/26 02:32:54;;;;;;;14.88;13.43;;;;;;;12.12;100.00;101941.78;5024341;28;20017;-68
2023/09/26 02:35:19;;;;;;;14.82;13.35;;;;;;;12.10;100.00;101935.63;5024301;28;20036;-69
2023/09/26 02:37:45;;;;;;;14.75;13.35;;;;;;;12.11;100.00;101932.03;5024813;28;20049;-68
2023/09/26 02:40:12;;;;;;;14.60;13.00;;;;;;;12.11;100.00;101935.56;5024375;28;20053;-69
2023/09/26 02:42:39;;;;;;;14.93;13.48;;;;;;;12.03;100.00;101934.13;5023965;28;20036;-69
2023/09/26 02:45:05;;;;;;;14.15;12.82;;;;;;;12.05;100.00;101935.81;5024290;28;20021;-69
2023/09/26 02:47:30;;;;;;;15.00;13.52;;;;;;;11.97;100.00;101927.25;5024289;28;20506;-69
2023/09/26 02:49:55;;;;;;;14.55;12.98;;;;;;;12.01;100.00;101930.69;5024467;28;20075;-69
2023/09/26 02:52:25;;;;;;;15.07;13.63;;;;;;;11.96;100.00;101921.06;5024369;28;20542;-69
2023/09/26 02:54:50;;;;;;;14.77;13.32;;;;;;;11.98;100.00;101930.78;5024348;28;20040;-69
2023/09/26 02:57:17;;;;;;;13.65;12.35;;;;;;;11.91;100.00;101924.81;5024144;28;20404;-69
2023/09/26 02:59:43;;;;;;;14.38;13.02;;;;;;;11.94;100.00;101920.22;5006912;28;20558;-70
2023/09/26 03:02:08;;;;;;;14.65;13.25;;;;;;;11.90;100.00;101910.59;5023990;28;20013;-69
2023/09/26 03:04:33;;;;;;;13.93;12.52;;;;;;;11.89;100.00;101905.34;5023587;28;20396;-68
2023/09/26 03:06:59;;;;;;;14.75;13.25;;;;;;;11.85;100.00;101912.59;5022597;28;20286;-68
2023/09/26 03:09:24;;;;;;;14.15;12.77;;;;;;;11.80;100.00;101901.22;5023917;28;20017;-69
2023/09/26 03:11:50;;;;;;;14.73;13.25;;;;;;;11.82;100.00;101895.81;5023594;28;20465;-69
2023/09/26 03:14:15;;;;;;;13.80;12.48;;;;;;;11.84;100.00;101899.31;5023494;28;20028;-69
2023/09/26 03:16:40;;;;;;;14.50;13.15;;;;;;;11.84;100.00;101896.66;5023796;28;20033;-68
2023/09/26 03:19:07;;;;;;;15.05;13.55;;;;;;;11.87;100.00;101893.84;5024077;28;20021;-69
2023/09/26 03:21:32;;;;;;;13.95;12.75;;;;;;;11.74;100.00;101885.41;5023978;28;20044;-69
2023/09/26 03:23:57;;;;;;;13.65;12.35;;;;;;;11.75;100.00;101887.19;5023209;28;20068;-68
2023/09/26 03:26:22;;;;;;;14.82;13.45;;;;;;;11.70;100.00;101897.13;5023412;28;20041;-71
2023/09/26 03:28:48;;;;;;;15.00;12.90;;;;;;;11.71;100.00;101897.09;5023995;28;20358;-69
2023/09/26 03:31:13;;;;;;;14.32;12.95;;;;;;;11.68;100.00;101894.53;5024633;28;20048;-68
2023/09/26 03:33:38;;;;;;;13.88;12.57;;;;;;;11.69;100.00;101898.06;5024173;28;20566;-68
2023/09/26 03:36:04;;;;;;;13.82;12.52;;;;;;;11.64;100.00;101894.72;5026365;28;20033;-68
2023/09/26 03:38:30;;;;;;;14.20;12.90;;;;;;;11.59;100.00;101894.03;5024603;28;20102;-69
2023/09/26 03:41:00;;;;;;;14.43;13.13;;;;;;;11.56;100.00;101896.81;5024982;28;20032;-69
2023/09/26 03:43:26;;;;;;;14.57;13.27;;;;;;;11.55;100.00;101898.63;5024546;28;20106;-71
2023/09/26 03:45:54;;;;;;;14.27;12.95;;;;;;;11.51;100.00;101886.31;5024853;28;20069;-70
2023/09/26 03:48:19;;;;;;;14.13;12.75;;;;;;;11.52;100.00;101892.53;5024444;28;20025;-69
2023/09/26 03:50:46;;;;;;;14.35;12.95;;;;;;;11.53;100.00;101892.47;5025261;28;20021;-69
2023/09/26 03:53:12;;;;;;;14.32;13.05;;;;;;;11.42;100.00;101897.34;5024657;28;20051;-69
2023/09/26 03:55:38;;;;;;;14.60;13.25;;;;;;;11.43;100.00;101901.75;5022729;28;20033;-69
2023/09/26 03:58:04;;;;;;;15.38;13.95;;;;;;;11.37;100.00;101889.53;5024709;28;20025;-69
2023/09/26 04:00:29;;;;;;;14.30;13.00;;;;;;;11.40;100.00;101888.53;5023909;28;20091;-69
2023/09/26 04:02:56;;;;;;;14.98;13.38;;;;;;;11.41;100.00;101885.81;5023907;28;20025;-70
2023/09/26 04:05:22;;;;;;;14.32;13.02;;;;;;;11.40;100.00;101886.72;5022974;28;20101;-70
2023/09/26 04:07:51;;;;;;;14.50;13.20;;;;;;;11.34;100.00;101886.97;5025197;28;20068;-69
2023/09/26 04:10:16;;;;;;;13.35;12.10;;;;;;;11.34;100.00;101886.97;5024535;28;20328;-69
2023/09/26 04:12:43;;;;;;;14.43;13.13;;;;;;;11.28;100.00;101887.19;5024937;28;20030;-70
2023/09/26 04:15:09;;;;;;;13.85;12.60;;;;;;;11.20;100.00;101887.50;5023905;28;20316;-70
2023/09/26 04:17:34;;;;;;;14.70;13.30;;;;;;;11.20;100.00;101882.16;5025388;28;20343;-70
2023/09/26 04:19:59;;;;;;;15.35;13.88;;;;;;;11.17;100.00;101892.06;5024991;28;20057;-70
2023/09/26 04:22:25;;;;;;;14.77;13.38;;;;;;;11.15;100.00;101883.22;5024335;28;20045;-69
2023/09/26 04:24:50;;;;;;;14.45;12.95;;;;;;;11.08;100.00;101884.41;5023484;28;20421;-69
2023/09/26 04:27:16;;;;;;;14.90;13.40;;;;;;;11.12;100.00;101883.34;5023401;28;20033;-69
2023/09/26 04:29:41;;;;;;;14.57;13.07;;;;;;;11.09;100.00;101879.00;5023231;28;20025;-69
2023/09/26 04:32:07;;;;;;;14.55;13.25;;;;;;;11.09;100.00;101884.34;5005064;28;20021;-69
2023/09/26 04:34:32;;;;;;;14.90;13.50;;;;;;;11.12;100.00;101884.22;5013799;28;20033;-70
2023/09/26 04:36:58;;;;;;;14.38;13.18;;;;;;;11.12;100.00;101878.91;5024963;28;20468;-69
2023/09/26 04:39:23;;;;;;;14.60;13.27;;;;;;;11.06;100.00;101864.94;5023667;28;20064;-69
2023/09/26 04:41:52;;;;;;;15.23;13.82;;;;;;;11.11;100.00;101868.28;5023700;28;20436;-70
2023/09/26 04:44:18;;;;;;;15.63;14.02;;;;;;;11.13;100.00;101866.44;5023886;28;20260;-69
2023/09/26 04:46:44;;;;;;;15.88;14.27;;;;;;;11.12;100.00;101862.91;5022904;28;20381;-71
2023/09/26 04:49:09;;;;;;;15.63;14.13;;;;;;;11.13;100.00;101875.31;5024160;28;20434;-69
2023/09/26 04:51:34;;;;;;;15.65;14.15;;;;;;;11.07;100.00;101877.31;5023813;28;20033;-68
2023/09/26 04:54:01;;;;;;;15.63;14.18;;;;;;;11.08;100.00;101868.41;4971616;28;20053;-69
2023/09/26 04:56:27;;;;;;;14.68;13.35;;;;;;;11.09;100.00;101870.16;5013565;28;20021;-69
2023/09/26 04:58:53;;;;;;;14.77;13.45;;;;;;;11.10;100.00;101869.22;5022677;28;20018;-69
2023/09/26 05:01:18;;;;;;;15.18;13.85;;;;;;;11.10;100.00;101855.91;5022613;28;20436;-69
2023/09/26 05:03:44;;;;;;;15.73;14.07;;;;;;;11.12;100.00;101862.03;5022502;28;20047;-70
2023/09/26 05:06:10;;;;;;;15.57;14.07;;;;;;;11.10;100.00;101862.09;5022139;28;20538;-69
2023/09/26 05:08:36;;;;;;;14.98;13.65;;;;;;;11.07;100.00;101848.88;5021726;28;20267;-69
2023/09/26 05:11:02;;;;;;;15.27;13.80;;;;;;;11.06;100.00;101852.47;5002811;28;20029;-69
2023/09/26 05:13:27;;;;;;;15.57;13.95;;;;;;;11.02;100.00;101855.31;5021803;28;20041;-69
2023/09/26 05:15:52;;;;;;;15.23;13.63;;;;;;;10.98;100.00;101850.06;5021941;28;20479;-70
2023/09/26 05:18:18;;;;;;;16.15;14.55;;;;;;;10.96;100.00;101854.59;5022473;28;20057;-68
2023/09/26 05:20:44;;;;;;;15.85;14.45;;;;;;;10.96;100.00;101861.75;5021917;28;20053;-68
2023/09/26 05:23:09;;;;;;;15.90;14.40;;;;;;;10.97;100.00;101855.47;5021683;28;20109;-68
2023/09/26 05:25:35;;;;;;;15.63;14.10;;;;;;;10.99;100.00;101864.25;5023236;28;20088;-69
2023/09/26 05:28:01;;;;;;;15.02;13.57;;;;;;;11.01;100.00;101865.09;5027645;28;20490;-69
2023/09/26 05:30:26;;;;;;;15.80;14.20;;;;;;;11.03;100.00;101867.69;4996578;28;20029;-69
2023/09/26 05:32:52;;;;;;;14.95;13.40;;;;;;;11.02;100.00;101864.16;5027741;28;20552;-69
2023/09/26 05:35:18;;;;;;;15.25;13.73;;;;;;;11.08;100.00;101865.75;4997448;28;20059;-69
2023/09/26 05:37:44;;;;;;;15.20;13.73;;;;;;;11.05;100.00;101857.88;5027119;28;20026;-69
2023/09/26 05:40:10;;;;;;;14.88;13.38;;;;;;;11.11;100.00;101857.63;5009457;28;20786;-69
2023/09/26 05:42:37;;;;;;;14.38;12.77;;;;;;;11.07;100.00;101859.53;5026147;28;20025;-68
2023/09/26 05:45:04;;;;;;;14.95;13.07;;;;;;;11.13;100.00;101855.78;5025871;28;20128;-67
2023/09/26 05:47:29;;;;;;;13.55;11.88;;;;;;;11.12;100.00;101851.34;5025821;28;20018;-69
2023/09/26 05:49:55;;;;;;;13.50;12.23;;;;;;;11.15;100.00;101857.44;5025768;28;20321;-69
2023/09/26 05:52:20;;;;;;;13.80;12.40;;;;;;;11.14;100.00;101852.19;5024939;28;20017;-69
2023/09/26 05:54:47;;;;;;;13.68;12.18;;;;;;;11.19;100.00;101863.53;5025987;28;20168;-69
2023/09/26 05:57:13;;;;;;;15.18;11.60;;;;;;;11.22;100.00;101869.63;5025276;28;20573;-69
2023/09/26 05:59:39;;;;;;;14.45;12.23;;;;;;;11.24;100.00;101866.91;5025377;28;20029;-69
2023/09/26 06:02:05;;;;;;;14.98;11.82;;;;;;;11.35;100.00;101871.84;5024897;28;20071;-69
2023/09/26 06:04:30;;;;;;;12.90;11.70;;;;;;;11.43;100.00;101880.41;5025081;28;20384;-69
2023/09/26 06:06:56;;;;;;;12.68;11.30;;;;;;;11.48;100.00;101873.97;5024915;28;20053;-69
2023/09/26 06:09:21;;;;;;;11.98;10.95;;;;;;;11.59;100.00;101872.72;5025016;28;20040;-69
2023/09/26 06:11:47;;;;;;;12.98;11.68;;;;;;;11.71;100.00;101874.91;5027075;28;20044;-69
2023/09/26 06:14:12;;;;;;;12.50;11.05;;;;;;;11.81;100.00;101876.25;5027118;28;20032;-69
2023/09/26 06:16:38;;;;;;;12.65;11.40;;;;;;;11.91;100.00;101871.44;5027466;28;20255;-70
2023/09/26 06:19:04;;;;;;;12.13;10.95;;;;;;;11.98;100.00;101866.75;5026173;28;20040;-70
2023/09/26 06:21:29;;;;;;;12.63;11.30;;;;;;;12.01;100.00;101861.31;5027025;28;20037;-69
2023/09/26 06:23:55;;;;;;;11.80;10.55;;;;;;;12.11;100.00;101858.16;5025221;28;20029;-69
2023/09/26 06:26:24;;;;;;;12.52;11.23;;;;;;;12.21;100.00;101866.69;5026520;28;20029;-70
2023/09/26 06:28:49;;;;;;;12.82;11.35;;;;;;;12.31;100.00;101860.03;5025756;28;20021;-70
2023/09/26 06:31:15;;;;;;;11.73;10.55;;;;;;;12.49;100.00;101849.50;5025240;28;20495;-70
2023/09/26 06:33:40;;;;;;;10.90;10.00;;;;;;;12.67;100.00;101856.72;5026115;28;20460;-70
2023/09/26 06:36:21;;;;;;;11.23;10.20;;;;;;;12.83;100.00;101847.13;5025155;28;20095;-69
2023/09/26 06:38:46;;;;;;;10.98;9.88;;;;;;;12.96;100.00;101855.44;5024373;28;20176;-70
2023/09/26 06:41:13;;;;;;;11.38;10.13;;;;;;;13.14;100.00;101848.41;5025004;28;20036;-70
2023/09/26 06:43:38;;;;;;;11.05;9.68;;;;;;;13.28;100.00;101862.03;5024771;28;20535;-70
2023/09/26 06:46:08;;;;;;;12.40;9.27;;;;;;;13.41;100.00;101865.00;5025274;28;20026;-70
2023/09/26 06:48:41;;;;;;;10.93;9.93;;;;;;;13.64;100.00;101850.56;5024859;28;20119;-69
2023/09/26 06:51:08;;;;;;;10.27;9.27;;;;;;;13.93;100.00;101855.38;5025021;28;20052;-69
2023/09/26 06:53:34;;;;;;;9.52;8.57;;;;;;;14.14;100.00;101857.94;5024938;28;20602;-70
2023/09/26 06:56:01;;;;;;;10.52;8.73;;;;;;;14.23;100.00;101862.81;5025241;28;20464;-70
2023/09/26 06:58:27;;;;;;;10.30;9.27;;;;;;;14.28;100.00;101855.41;5024921;28;20112;-69
2023/09/26 07:00:52;;;;;;;9.13;8.23;;;;;;;14.36;100.00;101863.06;5025261;28;20021;-69
2023/09/26 07:03:18;;;;;;;9.48;8.55;;;;;;;14.41;100.00;101867.25;5025222;28;20025;-70
2023/09/26 07:05:44;;;;;;;10.45;8.98;;;;;;;14.51;100.00;101870.38;5024783;28;20036;-70
2023/09/26 07:08:12;;;;;;;9.05;8.10;;;;;;;14.55;100.00;101869.28;5025293;28;20021;-70
2023/09/26 07:10:38;;;;;;;9.73;8.68;;;;;;;14.62;100.00;101867.13;5026241;28;20051;-70
2023/09/26 07:13:04;;;;;;;10.85;8.52;;;;;;;14.63;100.00;101872.44;5025802;28;20080;-69
2023/09/26 07:15:31;;;;;;;8.27;7.55;;;;;;;14.72;100.00;101871.09;5025232;28;20255;-70
2023/09/26 07:17:58;;;;;;;9.73;7.72;;;;;;;14.80;100.00;101865.31;5024285;28;20017;-69
2023/09/26 07:20:24;;;;;;;9.68;8.65;;;;;;;14.91;100.00;101865.59;5024715;28;20187;-70
2023/09/26 07:22:49;;;;;;;12.95;8.32;;;;;;;14.96;100.00;101855.50;5024927;28;20100;-69
2023/09/26 07:25:15;;;;;;;9.43;8.50;;;;;;;15.09;100.00;101864.66;5024328;28;20072;-69
2023/09/26 07:27:41;;;;;;;10.52;7.93;;;;;;;15.15;100.00;101858.09;5024635;28;20610;-69
2023/09/26 07:30:08;;;;;;;9.90;8.05;;;;;;;15.20;100.00;101861.38;5024409;28;20036;-70
2023/09/26 07:32:35;;;;;;;10.88;7.80;;;;;;;15.39;99.01;101861.25;5025825;28;20029;-70
2023/09/26 07:35:00;;;;;;;8.07;7.22;;;;;;;15.77;97.84;101845.72;5025790;28;20110;-70
2023/09/26 07:37:26;;;;;;;8.68;7.72;;;;;;;16.15;94.46;101850.72;5025490;28;20495;-70
2023/09/26 07:39:52;;;;;;;8.82;7.32;;;;;;;16.41;94.14;101849.16;5011735;28;20113;-69
2023/09/26 07:42:19;;;;;;;7.13;6.40;;;;;;;16.92;92.59;101852.38;5000580;28;20025;-70
2023/09/26 07:44:44;;;;;;;7.25;6.53;;;;;;;17.24;92.55;101861.16;5019743;28;20257;-70
2023/09/26 07:47:10;;;;;;;9.10;6.82;;;;;;;17.45;89.66;101858.94;5024045;28;20044;-71
2023/09/26 07:49:35;;;;;;;6.53;5.82;;;;;;;17.55;87.65;101864.56;5024045;28;20030;-71
2023/09/26 07:52:01;;;;;;;8.68;6.65;;;;;;;17.78;88.07;101857.75;5023706;28;20021;-70
2023/09/26 07:54:26;;;;;;;8.68;6.45;;;;;;;17.94;86.00;101855.78;5023378;28;20340;-70
2023/09/26 07:56:54;;;;;;;8.23;6.38;;;;;;;17.83;85.47;101855.63;5024388;28;20125;-70
2023/09/26 07:59:23;;;;;;;7.82;6.20;;;;;;;17.85;85.14;101862.66;5024088;28;20065;-70
2023/09/26 08:01:48;;;;;;;9.07;6.03;;;;;;;18.22;83.97;101862.03;5009171;28;20120;-70
2023/09/26 08:04:14;;;;;;;7.93;6.40;;;;;;;18.21;83.29;101865.69;5023318;28;20101;-70
2023/09/26 08:06:39;;;;;;;7.78;5.95;;;;;;;18.22;82.15;101862.03;5022827;28;20025;-70
2023/09/26 08:09:05;;;;;;;9.80;6.75;;;;;;;18.22;83.90;101860.19;5023625;28;20383;-70
2023/09/26 08:11:30;;;;;;;7.47;6.30;;;;;;;18.28;83.99;101859.81;5024488;28;20052;-70
2023/09/26 08:13:56;;;;;;;7.30;5.93;;;;;;;18.32;81.63;101847.84;5024048;28;20030;-70
2023/09/26 08:16:23;;;;;;;8.15;5.82;;;;;;;18.28;81.57;101838.25;5023094;28;20300;-70
2023/09/26 08:18:52;;;;;;;11.00;6.07;;;;;;;18.20;81.23;101832.50;4993988;28;20072;-70
2023/09/26 08:21:18;;;;;;;8.88;6.35;;;;;;;18.32;81.92;101828.97;5012692;28;20252;-70
2023/09/26 08:23:43;;;;;;;7.45;5.95;;;;;;;18.67;81.48;101839.16;5023607;28;20025;-70
2023/09/26 08:26:12;;;;;;;7.32;5.85;;;;;;;19.28;78.88;101855.63;5023472;28;20052;-70
2023/09/26 08:28:38;;;;;;;7.65;5.68;;;;;;;19.52;77.17;101858.38;5023057;28;20038;-68
2023/09/26 08:31:13;;;;;;;6.10;5.50;;;;;;;20.18;77.18;101845.44;5022900;28;20032;-69
2023/09/26 08:33:38;;;;;;;7.95;5.38;;;;;;;20.80;71.82;101843.31;5023077;28;20104;-70
2023/09/26 08:36:15;;;;;;;7.90;5.75;;;;;;;21.39;70.82;101845.84;5023114;28;20079;-71
2023/09/26 08:38:40;;;;;;;6.18;5.00;;;;;;;22.11;67.11;101839.06;5023062;28;20026;-69
2023/09/26 08:41:08;;;;;;;8.15;5.35;;;;;;;22.63;65.25;101840.94;5022711;28;20476;-71
2023/09/26 08:43:34;;;;;;;5.28;4.78;;;;;;;23.28;62.80;101840.75;5022855;28;20025;-71
2023/09/26 08:46:00;;;;;;;6.35;5.20;;;;;;;23.13;60.30;101843.00;5022604;28;20026;-70
2023/09/26 08:48:26;;;;;;;5.85;5.25;;;;;;;22.79;62.12;101837.78;5022844;28;20078;-70
2023/09/26 08:50:52;;;;;;;6.43;5.28;;;;;;;22.94;60.69;101830.16;5023305;28;20083;-71
2023/09/26 08:53:18;;;;;;;5.93;5.10;;;;;;;23.64;59.40;101836.59;5021703;28;20034;-70
2023/09/26 08:55:45;;;;;;;10.13;5.68;;;;;;;23.79;58.59;101835.25;5022781;28;20387;-70
2023/09/26 08:58:14;;;;;;;7.20;4.70;;;;;;;24.05;57.03;101821.13;5022849;28;20083;-69
2023/09/26 09:00:40;;;;;;;5.72;5.03;;;;;;;24.03;57.69;101833.97;5023468;28;20507;-71
2023/09/26 09:03:05;;;;;;;6.03;5.03;;;;;;;24.25;56.73;101833.72;5028228;28;20060;-70
2023/09/26 09:05:30;;;;;;;7.05;4.78;;;;;;;25.12;54.06;101831.91;5028182;28;20329;-70
2023/09/26 09:07:56;;;;;;;7.13;5.32;;;;;;;25.52;52.36;101828.84;5028448;28;20499;-71
2023/09/26 09:10:25;;;;;;;6.68;5.10;;;;;;;25.23;52.53;101840.75;5028742;28;20025;-68
2023/09/26 09:13:03;;;;;;;5.63;4.40;;;;;;;25.87;53.11;101838.13;5028642;28;20049;-70
2023/09/26 09:15:29;;;;;;;6.78;4.57;;;;;;;27.06;49.36;101829.44;5026325;28;20030;-70
2023/09/26 09:17:55;;;;;;;6.63;4.40;;;;;;;28.25;45.88;101818.41;5027405;28;20049;-70
2023/09/26 09:20:34;;;;;;;6.85;4.03;;;;;;;29.20;46.65;101821.41;5026539;28;20057;-70
2023/09/26 09:23:06;;;;;;;6.10;3.92;;;;;;;29.35;43.52;101829.78;4992548;28;20096;-71
2023/09/26 09:25:36;;;;;;;5.32;4.45;;;;;;;29.37;41.28;101837.81;5021586;28;20037;-70
2023/09/26 09:28:04;;;;;;;5.13;4.05;;;;;;;29.77;41.70;101836.81;5026606;28;20029;-71
2023/09/26 09:30:36;;;;;;;5.60;3.53;;;;;;;30.65;40.06;101838.22;5026283;28;20075;-70
2023/09/26 09:33:01;;;;;;;4.75;3.65;;;;;;;30.93;39.23;101838.47;5026234;28;20034;-70
2023/09/26 09:35:27;;;;;;;4.65;3.90;;;;;;;30.24;39.47;101830.34;5025058;28;20604;-70
2023/09/26 09:37:52;;;;;;;4.18;3.70;;;;;;;29.10;41.03;101836.38;5026383;28;20065;-71
2023/09/26 09:40:22;;;;;;;5.28;3.50;;;;;;;29.34;42.25;101832.69;5024645;28;20113;-71
2023/09/26 09:42:49;;;;;;;5.50;3.60;;;;;;;29.65;41.52;101825.38;5025446;28;20029;-71
2023/09/26 09:45:14;;;;;;;4.85;3.50;;;;;;;30.25;40.53;101821.06;5026580;28;20167;-72
2023/09/26 09:47:43;;;;;;;5.18;3.10;;;;;;;29.98;40.22;101811.47;5027386;28;20025;-69
2023/09/26 09:50:10;;;;;;;5.32;3.40;;;;;;;28.97;40.88;101809.50;5026024;28;20021;-72
2023/09/26 09:52:37;;;;;;;4.57;3.13;;;;;;;29.03;42.42;101800.59;5008438;28;20045;-72
2023/09/26 09:55:05;;;;;;;4.43;3.08;;;;;;;29.81;39.59;101798.88;5018494;28;20025;-71
2023/09/26 09:57:35;;;;;;;4.22;3.25;;;;;;;30.05;38.33;101800.59;5009065;28;20365;-70
2023/09/26 10:00:02;;;;;;;4.03;2.50;;;;;;;30.09;37.83;101807.41;5027166;28;20032;-72
2023/09/26 10:02:27;;;;;;;3.53;2.72;;;;;;;29.82;38.99;101806.06;5025227;28;20112;-71
2023/09/26 10:04:55;;;;;;;3.88;2.67;;;;;;;30.15;39.44;101799.34;5004997;28;20109;-72
2023/09/26 10:07:24;;;;;;;3.30;2.33;;;;;;;30.52;39.95;101803.16;5026515;28;20032;-70
2023/09/26 10:09:51;;;;;;;5.13;2.58;;;;;;;30.73;36.95;101799.72;5026074;28;20044;-71
2023/09/26 10:12:17;;;;;;;4.47;2.50;;;;;;;30.79;37.32;101795.34;5024951;28;20214;-70
2023/09/26 10:14:42;;;;;;;5.05;2.97;;;;;;;30.65;36.50;101797.88;5024195;28;20168;-69
2023/09/26 10:17:08;;;;;;;3.92;2.40;;;;;;;30.63;36.24;101793.59;5024823;28;20135;-70
2023/09/26 10:19:34;;;;;;;4.00;2.55;;;;;;;30.32;36.37;101780.00;5024733;28;20415;-70
2023/09/26 10:22:32;;;;;;;3.00;2.08;;;;;;;29.99;38.69;101793.94;5025842;28;20529;-70
2023/09/26 10:25:00;;;;;;;4.13;2.20;;;;;;;28.74;37.87;101793.75;5024938;28;20045;-70
2023/09/26 10:27:39;;;;;;;5.40;2.50;;;;;;;28.51;40.85;101788.16;5024183;28;20069;-70
2023/09/26 10:30:07;;;;;;;4.43;2.38;;;;;;;27.75;40.20;101797.47;5024874;28;20028;-70
2023/09/26 10:32:34;;;;;;;2.53;1.90;;;;;;;27.07;41.12;101789.31;4987266;28;20038;-69
2023/09/26 10:35:22;;;;;;;3.70;2.35;;;;;;;26.55;43.48;101792.09;5018268;28;20147;-69
2023/09/26 10:37:49;;;;;;;3.65;2.30;;;;;;;26.17;44.52;101788.69;5024473;28;20235;-69
2023/09/26 10:40:18;;;;;;;4.13;2.58;;;;;;;25.96;45.75;101790.84;5024393;28;20288;-69
2023/09/26 10:42:46;;;;;;;4.28;2.60;;;;;;;25.49;46.63;101796.44;5023853;28;20083;-70
2023/09/26 10:45:12;;;;;;;5.00;2.50;;;;;;;25.25;47.97;101789.69;5024301;28;20025;-69
2023/09/26 10:47:40;;;;;;;3.03;2.58;;;;;;;25.14;48.40;101789.88;5024398;28;20557;-70
2023/09/26 10:50:12;;;;;;;4.60;2.70;;;;;;;25.17;49.91;101797.78;5024641;28;20030;-70
2023/09/26 10:52:46;;;;;;;4.15;2.65;;;;;;;25.72;49.93;101794.16;5024002;28;20025;-70
2023/09/26 10:55:14;;;;;;;3.45;2.30;;;;;;;25.95;44.63;101789.13;5024478;28;20037;-70
2023/09/26 10:57:39;;;;;;;3.47;2.30;;;;;;;26.52;43.84;101782.31;5010823;28;20048;-70
2023/09/26 11:00:10;;;;;;;2.55;2.20;;;;;;;26.62;43.60;101781.34;5024252;28;20079;-70
2023/09/26 11:02:36;;;;;;;3.92;2.50;;;;;;;27.04;41.51;101781.44;5005976;28;20033;-69
2023/09/26 11:05:09;;;;;;;4.90;2.60;;;;;;;27.42;41.85;101785.59;5023699;28;20057;-69
2023/09/26 11:07:35;;;;;;;3.95;2.30;;;;;;;27.26;41.77;101797.31;5023726;28;20033;-69